sensor_id;sensor_type;location;lat;lon;timestamp;pressure;altitude;pressure_sealevel;temperature
18161;BMP280;9205;52.032;4.314;2023-07-31T00:00:05;100883.63;;;18.75
18161;BMP280;9205;52.032;4.314;2023-07-31T00:02:34;100884.63;;;18.72
18161;BMP280;9205;52.032;4.314;2023-07-31T00:05:02;100891.41;;;18.73
18161;BMP280;9205;52.032;4.314;2023-07-31T00:07:32;100887.91;;;18.74
18161;BMP280;9205;52.032;4.314;2023-07-31T00:09:59;100893.00;;;18.76
18161;BMP280;9205;52.032;4.314;2023-07-31T00:12:26;100888.84;;;18.73
18161;BMP280;9205;52.032;4.314;2023-07-31T00:14:54;100882.94;;;18.71
18161;BMP280;9205;52.032;4.314;2023-07-31T00:17:21;100877.63;;;18.74
18161;BMP280;9205;52.032;4.314;2023-07-31T00:19:48;100877.47;;;18.77
18161;BMP280;9205;52.032;4.314;2023-07-31T00:22:16;100879.22;;;18.77
18161;BMP280;9205;52.032;4.314;2023-07-31T00:24:45;100887.75;;;18.77
18161;BMP280;9205;52.032;4.314;2023-07-31T00:27:12;100879.63;;;18.69
18161;BMP280;9205;52.032;4.314;2023-07-31T00:29:40;100877.81;;;18.71
18161;BMP280;9205;52.032;4.314;2023-07-31T00:32:08;100869.91;;;18.74
18161;BMP280;9205;52.032;4.314;2023-07-31T00:34:37;100881.13;;;18.73
18161;BMP280;9205;52.032;4.314;2023-07-31T00:37:05;100886.44;;;18.70
18161;BMP280;9205;52.032;4.314;2023-07-31T00:39:34;100883.09;;;18.68
18161;BMP280;9205;52.032;4.314;2023-07-31T00:42:04;100866.66;;;18.71
18161;BMP280;9205;52.032;4.314;2023-07-31T00:44:31;100878.63;;;18.72
18161;BMP280;9205;52.032;4.314;2023-07-31T00:47:00;100876.94;;;18.71
18161;BMP280;9205;52.032;4.314;2023-07-31T00:49:27;100879.53;;;18.71
18161;BMP280;9205;52.032;4.314;2023-07-31T00:51:55;100876.13;;;18.70
18161;BMP280;9205;52.032;4.314;2023-07-31T00:54:25;100885.91;;;18.64
18161;BMP280;9205;52.032;4.314;2023-07-31T00:56:54;100885.84;;;18.65
18161;BMP280;9205;52.032;4.314;2023-07-31T00:59:23;100877.63;;;18.59
18161;BMP280;9205;52.032;4.314;2023-07-31T01:01:50;100878.28;;;18.62
18161;BMP280;9205;52.032;4.314;2023-07-31T01:04:18;100869.72;;;18.62
18161;BMP280;9205;52.032;4.314;2023-07-31T01:06:55;100869.00;;;18.60
18161;BMP280;9205;52.032;4.314;2023-07-31T01:09:34;100864.66;;;18.60
18161;BMP280;9205;52.032;4.314;2023-07-31T01:12:06;100871.47;;;18.61
18161;BMP280;9205;52.032;4.314;2023-07-31T01:14:35;100866.19;;;18.64
18161;BMP280;9205;52.032;4.314;2023-07-31T01:17:02;100867.00;;;18.65
18161;BMP280;9205;52.032;4.314;2023-07-31T01:19:30;100856.47;;;18.69
18161;BMP280;9205;52.032;4.314;2023-07-31T01:22:24;100862.69;;;18.65
18161;BMP280;9205;52.032;4.314;2023-07-31T01:25:04;100862.84;;;18.62
18161;BMP280;9205;52.032;4.314;2023-07-31T01:27:46;100859.19;;;18.66
18161;BMP280;9205;52.032;4.314;2023-07-31T01:30:22;100850.66;;;18.66
18161;BMP280;9205;52.032;4.314;2023-07-31T01:32:54;100857.38;;;18.68
18161;BMP280;9205;52.032;4.314;2023-07-31T01:35:22;100854.03;;;18.66
18161;BMP280;9205;52.032;4.314;2023-07-31T01:37:53;100845.34;;;18.69
18161;BMP280;9205;52.032;4.314;2023-07-31T01:40:21;100850.56;;;18.67
18161;BMP280;9205;52.032;4.314;2023-07-31T01:42:50;100848.06;;;18.66
18161;BMP280;9205;52.032;4.314;2023-07-31T01:45:17;100836.63;;;18.71
18161;BMP280;9205;52.032;4.314;2023-07-31T01:47:44;100848.59;;;18.72
18161;BMP280;9205;52.032;4.314;2023-07-31T01:50:12;100822.84;;;18.72
18161;BMP280;9205;52.032;4.314;2023-07-31T01:52:39;100822.00;;;18.72
18161;BMP280;9205;52.032;4.314;2023-07-31T01:55:08;100811.91;;;18.69
18161;BMP280;9205;52.032;4.314;2023-07-31T01:57:37;100807.56;;;18.69
18161;BMP280;9205;52.032;4.314;2023-07-31T02:00:07;100812.88;;;18.66
18161;BMP280;9205;52.032;4.314;2023-07-31T02:02:40;100796.47;;;18.69
18161;BMP280;9205;52.032;4.314;2023-07-31T02:05:08;100799.94;;;18.68
18161;BMP280;9205;52.032;4.314;2023-07-31T02:07:35;100795.72;;;18.67
18161;BMP280;9205;52.032;4.314;2023-07-31T02:10:02;100796.22;;;18.73
18161;BMP280;9205;52.032;4.314;2023-07-31T02:12:29;100791.88;;;18.74
18161;BMP280;9205;52.032;4.314;2023-07-31T02:14:58;100792.69;;;18.74
18161;BMP280;9205;52.032;4.314;2023-07-31T02:17:26;100795.13;;;18.77
18161;BMP280;9205;52.032;4.314;2023-07-31T02:19:53;100789.22;;;18.75
18161;BMP280;9205;52.032;4.314;2023-07-31T02:22:21;100785.81;;;18.75
18161;BMP280;9205;52.032;4.314;2023-07-31T02:24:48;100788.97;;;18.80
18161;BMP280;9205;52.032;4.314;2023-07-31T02:27:15;100787.97;;;18.82
18161;BMP280;9205;52.032;4.314;2023-07-31T02:29:42;100795.88;;;18.79
18161;BMP280;9205;52.032;4.314;2023-07-31T02:32:10;100782.09;;;18.80
18161;BMP280;9205;52.032;4.314;2023-07-31T02:34:38;100784.47;;;18.83
18161;BMP280;9205;52.032;4.314;2023-07-31T02:37:06;100793.09;;;18.82
18161;BMP280;9205;52.032;4.314;2023-07-31T02:39:33;100777.09;;;18.77
18161;BMP280;9205;52.032;4.314;2023-07-31T02:42:01;100779.53;;;18.80
18161;BMP280;9205;52.032;4.314;2023-07-31T02:44:28;100784.66;;;18.80
18161;BMP280;9205;52.032;4.314;2023-07-31T02:46:55;100776.53;;;18.72
18161;BMP280;9205;52.032;4.314;2023-07-31T02:49:23;100764.41;;;18.74
18161;BMP280;9205;52.032;4.314;2023-07-31T02:51:51;100771.06;;;18.78
18161;BMP280;9205;52.032;4.314;2023-07-31T02:54:19;100759.00;;;18.79
18161;BMP280;9205;52.032;4.314;2023-07-31T02:56:47;100755.59;;;18.78
18161;BMP280;9205;52.032;4.314;2023-07-31T02:59:15;100753.19;;;18.75
18161;BMP280;9205;52.032;4.314;2023-07-31T03:01:42;100743.50;;;18.80
18161;BMP280;9205;52.032;4.314;2023-07-31T03:04:09;100741.47;;;18.85
18161;BMP280;9205;52.032;4.314;2023-07-31T03:06:36;100741.47;;;18.85
18161;BMP280;9205;52.032;4.314;2023-07-31T03:09:05;100748.84;;;18.91
18161;BMP280;9205;52.032;4.314;2023-07-31T03:11:32;100740.22;;;18.92
18161;BMP280;9205;52.032;4.314;2023-07-31T03:13:59;100744.44;;;18.93
18161;BMP280;9205;52.032;4.314;2023-07-31T03:16:26;100753.09;;;18.92
18161;BMP280;9205;52.032;4.314;2023-07-31T03:18:54;100744.72;;;18.88
18161;BMP280;9205;52.032;4.314;2023-07-31T03:21:21;100741.47;;;18.85
18161;BMP280;9205;52.032;4.314;2023-07-31T03:23:49;100732.09;;;18.84
18161;BMP280;9205;52.032;4.314;2023-07-31T03:26:17;100739.00;;;18.84
18161;BMP280;9205;52.032;4.314;2023-07-31T03:28:44;100734.78;;;18.83
18161;BMP280;9205;52.032;4.314;2023-07-31T03:31:12;100729.44;;;18.85
18161;BMP280;9205;52.032;4.314;2023-07-31T03:33:39;100731.84;;;18.88
18161;BMP280;9205;52.032;4.314;2023-07-31T03:36:06;100725.94;;;18.86
18161;BMP280;9205;52.032;4.314;2023-07-31T03:38:34;100719.97;;;18.86
18161;BMP280;9205;52.032;4.314;2023-07-31T03:41:01;100733.09;;;18.82
18161;BMP280;9205;52.032;4.314;2023-07-31T03:43:29;100719.59;;;18.78
18161;BMP280;9205;52.032;4.314;2023-07-31T03:45:57;100710.38;;;18.74
18161;BMP280;9205;52.032;4.314;2023-07-31T03:48:24;100704.56;;;18.71
18161;BMP280;9205;52.032;4.314;2023-07-31T03:50:52;100700.53;;;18.67
18161;BMP280;9205;52.032;4.314;2023-07-31T03:53:19;100697.19;;;18.65
18161;BMP280;9205;52.032;4.314;2023-07-31T03:55:46;100700.69;;;18.64
18161;BMP280;9205;52.032;4.314;2023-07-31T03:58:14;100686.34;;;18.60
18161;BMP280;9205;52.032;4.314;2023-07-31T04:00:42;100677.88;;;18.58
18161;BMP280;9205;52.032;4.314;2023-07-31T04:03:09;100676.22;;;18.57
18161;BMP280;9205;52.032;4.314;2023-07-31T04:05:39;100680.44;;;18.58
18161;BMP280;9205;52.032;4.314;2023-07-31T04:08:06;100677.06;;;18.57
18161;BMP280;9205;52.032;4.314;2023-07-31T04:10:33;100676.31;;;18.55
18161;BMP280;9205;52.032;4.314;2023-07-31T04:13:01;100682.13;;;18.59
18161;BMP280;9205;52.032;4.314;2023-07-31T04:15:28;100675.47;;;18.55
18161;BMP280;9205;52.032;4.314;2023-07-31T04:17:56;100670.69;;;18.49
18161;BMP280;9205;52.032;4.314;2023-07-31T04:20:24;100656.09;;;18.49
18161;BMP280;9205;52.032;4.314;2023-07-31T04:22:51;100663.81;;;18.49
18161;BMP280;9205;52.032;4.314;2023-07-31T04:25:18;100654.78;;;18.42
18161;BMP280;9205;52.032;4.314;2023-07-31T04:27:46;100651.63;;;18.37
18161;BMP280;9205;52.032;4.314;2023-07-31T04:30:13;100646.31;;;18.40
18161;BMP280;9205;52.032;4.314;2023-07-31T04:32:41;100649.44;;;18.45
18161;BMP280;9205;52.032;4.314;2023-07-31T04:35:10;100647.97;;;18.41
18161;BMP280;9205;52.032;4.314;2023-07-31T04:37:37;100658.00;;;18.46
18161;BMP280;9205;52.032;4.314;2023-07-31T04:40:06;100654.59;;;18.45
18161;BMP280;9205;52.032;4.314;2023-07-31T04:42:34;100651.34;;;18.42
18161;BMP280;9205;52.032;4.314;2023-07-31T04:45:01;100644.75;;;18.38
18161;BMP280;9205;52.032;4.314;2023-07-31T04:47:28;100648.13;;;18.38
18161;BMP280;9205;52.032;4.314;2023-07-31T04:49:55;100642.91;;;18.40
18161;BMP280;9205;52.032;4.314;2023-07-31T04:52:24;100640.50;;;18.37
18161;BMP280;9205;52.032;4.314;2023-07-31T04:54:51;100641.41;;;18.36
18161;BMP280;9205;52.032;4.314;2023-07-31T04:57:18;100635.19;;;18.40
18161;BMP280;9205;52.032;4.314;2023-07-31T04:59:45;100633.63;;;18.37
18161;BMP280;9205;52.032;4.314;2023-07-31T05:02:13;100638.34;;;18.29
18161;BMP280;9205;52.032;4.314;2023-07-31T05:04:40;100632.22;;;18.32
18161;BMP280;9205;52.032;4.314;2023-07-31T05:07:07;100630.66;;;18.29
18161;BMP280;9205;52.032;4.314;2023-07-31T05:09:36;100623.69;;;18.31
18161;BMP280;9205;52.032;4.314;2023-07-31T05:12:06;100620.44;;;18.28
18161;BMP280;9205;52.032;4.314;2023-07-31T05:14:33;100619.53;;;18.29
18161;BMP280;9205;52.032;4.314;2023-07-31T05:17:00;100621.75;;;18.35
18161;BMP280;9205;52.032;4.314;2023-07-31T05:19:27;100616.47;;;18.38
18161;BMP280;9205;52.032;4.314;2023-07-31T05:21:55;100620.00;;;18.35
18161;BMP280;9205;52.032;4.314;2023-07-31T05:24:22;100621.66;;;18.36
18161;BMP280;9205;52.032;4.314;2023-07-31T05:26:51;100611.63;;;18.32
18161;BMP280;9205;52.032;4.314;2023-07-31T05:29:18;100610.16;;;18.28
18161;BMP280;9205;52.032;4.314;2023-07-31T05:31:45;100601.44;;;18.30
18161;BMP280;9205;52.032;4.314;2023-07-31T05:34:12;100610.81;;;18.31
18161;BMP280;9205;52.032;4.314;2023-07-31T05:36:39;100610.06;;;18.29
18161;BMP280;9205;52.032;4.314;2023-07-31T05:39:06;100597.06;;;18.32
18161;BMP280;9205;52.032;4.314;2023-07-31T05:41:35;100593.91;;;18.27
18161;BMP280;9205;52.032;4.314;2023-07-31T05:44:04;100601.34;;;18.32
18161;BMP280;9205;52.032;4.314;2023-07-31T05:46:31;100597.88;;;18.33
18161;BMP280;9205;52.032;4.314;2023-07-31T05:48:59;100598.53;;;18.36
18161;BMP280;9205;52.032;4.314;2023-07-31T05:51:27;100589.09;;;18.37
18161;BMP280;9205;52.032;4.314;2023-07-31T05:53:54;100592.47;;;18.37
18161;BMP280;9205;52.032;4.314;2023-07-31T05:56:21;100597.44;;;18.40
18161;BMP280;9205;52.032;4.314;2023-07-31T05:58:49;100587.22;;;18.39
18161;BMP280;9205;52.032;4.314;2023-07-31T06:01:18;100589.75;;;18.40
18161;BMP280;9205;52.032;4.314;2023-07-31T06:03:47;100593.97;;;18.41
18161;BMP280;9205;52.032;4.314;2023-07-31T06:06:14;100573.94;;;18.46
18161;BMP280;9205;52.032;4.314;2023-07-31T06:08:41;100576.25;;;18.51
18161;BMP280;9205;52.032;4.314;2023-07-31T06:11:08;100587.03;;;18.57
18161;BMP280;9205;52.032;4.314;2023-07-31T06:13:36;100579.38;;;18.56
18161;BMP280;9205;52.032;4.314;2023-07-31T06:16:03;100567.16;;;18.59
18161;BMP280;9205;52.032;4.314;2023-07-31T06:18:33;100572.06;;;18.64
18161;BMP280;9205;52.032;4.314;2023-07-31T06:21:01;100568.47;;;18.66
18161;BMP280;9205;52.032;4.314;2023-07-31T06:23:28;100569.06;;;18.71
18161;BMP280;9205;52.032;4.314;2023-07-31T06:25:55;100564.34;;;18.78
18161;BMP280;9205;52.032;4.314;2023-07-31T06:28:27;100553.50;;;18.73
18161;BMP280;9205;52.032;4.314;2023-07-31T06:30:55;100569.59;;;18.76
18161;BMP280;9205;52.032;4.314;2023-07-31T06:33:23;100565.19;;;18.78
18161;BMP280;9205;52.032;4.314;2023-07-31T06:35:52;100561.59;;;18.81
18161;BMP280;9205;52.032;4.314;2023-07-31T06:38:25;100553.06;;;18.80
18161;BMP280;9205;52.032;4.314;2023-07-31T06:40:53;100554.81;;;18.80
18161;BMP280;9205;52.032;4.314;2023-07-31T06:43:20;100554.81;;;18.80
18161;BMP280;9205;52.032;4.314;2023-07-31T06:45:47;100559.03;;;18.81
18161;BMP280;9205;52.032;4.314;2023-07-31T06:48:17;100549.56;;;18.81
18161;BMP280;9205;52.032;4.314;2023-07-31T06:50:44;100560.59;;;18.83
18161;BMP280;9205;52.032;4.314;2023-07-31T06:53:12;100558.03;;;18.83
18161;BMP280;9205;52.032;4.314;2023-07-31T06:55:40;100551.16;;;18.84
18161;BMP280;9205;52.032;4.314;2023-07-31T06:58:07;100556.03;;;18.88
18161;BMP280;9205;52.032;4.314;2023-07-31T07:00:34;100542.03;;;18.92
18161;BMP280;9205;52.032;4.314;2023-07-31T07:03:04;100552.34;;;18.92
18161;BMP280;9205;52.032;4.314;2023-07-31T07:05:31;100552.34;;;18.92
18161;BMP280;9205;52.032;4.314;2023-07-31T07:07:58;100559.13;;;18.93
18161;BMP280;9205;52.032;4.314;2023-07-31T07:10:27;100562.19;;;18.99
18161;BMP280;9205;52.032;4.314;2023-07-31T07:12:55;100564.81;;;18.98
18161;BMP280;9205;52.032;4.314;2023-07-31T07:15:22;100547.72;;;18.97
18161;BMP280;9205;52.032;4.314;2023-07-31T07:17:49;100542.50;;;18.98
18161;BMP280;9205;52.032;4.314;2023-07-31T07:20:17;100543.06;;;19.03
18161;BMP280;9205;52.032;4.314;2023-07-31T07:22:45;100540.38;;;19.05
18161;BMP280;9205;52.032;4.314;2023-07-31T07:25:13;100541.78;;;19.10
18161;BMP280;9205;52.032;4.314;2023-07-31T07:27:41;100539.97;;;19.12
18161;BMP280;9205;52.032;4.314;2023-07-31T07:30:09;100540.06;;;19.11
18161;BMP280;9205;52.032;4.314;2023-07-31T07:32:37;100540.97;;;19.10
18161;BMP280;9205;52.032;4.314;2023-07-31T07:35:06;100538.41;;;19.10
18161;BMP280;9205;52.032;4.314;2023-07-31T07:37:33;100544.59;;;19.06
18161;BMP280;9205;52.032;4.314;2023-07-31T07:40:00;100549.25;;;19.15
18161;BMP280;9205;52.032;4.314;2023-07-31T07:42:28;100549.88;;;19.18
18161;BMP280;9205;52.032;4.314;2023-07-31T07:44:56;100549.97;;;19.17
18161;BMP280;9205;52.032;4.314;2023-07-31T07:47:24;100545.56;;;19.19
18161;BMP280;9205;52.032;4.314;2023-07-31T07:49:51;100537.63;;;19.22
18161;BMP280;9205;52.032;4.314;2023-07-31T07:52:18;100548.84;;;19.21
18161;BMP280;9205;52.032;4.314;2023-07-31T07:54:45;100550.50;;;19.22
18161;BMP280;9205;52.032;4.314;2023-07-31T07:57:12;100547.31;;;19.18
18161;BMP280;9205;52.032;4.314;2023-07-31T07:59:41;100531.75;;;19.20
18161;BMP280;9205;52.032;4.314;2023-07-31T08:02:10;100532.50;;;19.22
18161;BMP280;9205;52.032;4.314;2023-07-31T08:04:37;100543.72;;;19.21
18161;BMP280;9205;52.032;4.314;2023-07-31T08:07:04;100537.38;;;19.26
18161;BMP280;9205;52.032;4.314;2023-07-31T08:09:32;100527.91;;;19.27
18161;BMP280;9205;52.032;4.314;2023-07-31T08:11:59;100528.72;;;19.27
18161;BMP280;9205;52.032;4.314;2023-07-31T08:14:29;100525.41;;;19.25
18161;BMP280;9205;52.032;4.314;2023-07-31T08:16:57;100526.88;;;19.29
18161;BMP280;9205;52.032;4.314;2023-07-31T08:19:25;100531.75;;;19.34
18161;BMP280;9205;52.032;4.314;2023-07-31T08:21:53;100534.97;;;19.37
18161;BMP280;9205;52.032;4.314;2023-07-31T08:24:20;100532.41;;;19.37
18161;BMP280;9205;52.032;4.314;2023-07-31T08:26:47;100516.56;;;19.43
18161;BMP280;9205;52.032;4.314;2023-07-31T08:29:15;100519.03;;;19.45
18161;BMP280;9205;52.032;4.314;2023-07-31T08:31:42;100525.72;;;19.47
18161;BMP280;9205;52.032;4.314;2023-07-31T08:34:09;100521.22;;;19.51
18161;BMP280;9205;52.032;4.314;2023-07-31T08:36:38;100523.59;;;19.54
18161;BMP280;9205;52.032;4.314;2023-07-31T08:39:05;100518.09;;;19.46
18161;BMP280;9205;52.032;4.314;2023-07-31T08:41:37;100523.78;;;19.51
18161;BMP280;9205;52.032;4.314;2023-07-31T08:44:06;100519.66;;;19.48
18161;BMP280;9205;52.032;4.314;2023-07-31T08:46:36;100516.16;;;19.49
18161;BMP280;9205;52.032;4.314;2023-07-31T08:49:05;100515.06;;;19.53
18161;BMP280;9205;52.032;4.314;2023-07-31T08:51:34;100518.97;;;19.59
18161;BMP280;9205;52.032;4.314;2023-07-31T08:54:03;100517.34;;;19.58
18161;BMP280;9205;52.032;4.314;2023-07-31T08:56:32;100511.81;;;19.64
18161;BMP280;9205;52.032;4.314;2023-07-31T08:59:02;100518.63;;;19.65
18161;BMP280;9205;52.032;4.314;2023-07-31T09:01:34;100514.38;;;19.64
18161;BMP280;9205;52.032;4.314;2023-07-31T09:04:04;100514.28;;;19.65
18161;BMP280;9205;52.032;4.314;2023-07-31T09:06:33;100519.53;;;19.64
18161;BMP280;9205;52.032;4.314;2023-07-31T09:09:02;100518.81;;;19.62
18161;BMP280;9205;52.032;4.314;2023-07-31T09:11:30;100524.94;;;19.73
18161;BMP280;9205;52.032;4.314;2023-07-31T09:13:57;100514.34;;;19.77
18161;BMP280;9205;52.032;4.314;2023-07-31T09:16:28;100533.75;;;19.83
18161;BMP280;9205;52.032;4.314;2023-07-31T09:18:58;100522.81;;;19.79
18161;BMP280;9205;52.032;4.314;2023-07-31T09:21:27;100514.97;;;19.81
18161;BMP280;9205;52.032;4.314;2023-07-31T09:23:55;100523.13;;;19.87
18161;BMP280;9205;52.032;4.314;2023-07-31T09:26:32;100520.75;;;19.84
18161;BMP280;9205;52.032;4.314;2023-07-31T09:29:00;100517.69;;;19.92
18161;BMP280;9205;52.032;4.314;2023-07-31T09:31:42;100512.16;;;19.98
18161;BMP280;9205;52.032;4.314;2023-07-31T09:34:11;100519.78;;;19.99
18161;BMP280;9205;52.032;4.314;2023-07-31T09:36:44;100515.00;;;19.93
18161;BMP280;9205;52.032;4.314;2023-07-31T09:39:13;100513.34;;;19.92
18161;BMP280;9205;52.032;4.314;2023-07-31T09:41:45;100512.44;;;19.93
18161;BMP280;9205;52.032;4.314;2023-07-31T09:44:13;100510.41;;;19.98
18161;BMP280;9205;52.032;4.314;2023-07-31T09:46:40;100505.16;;;20.00
18161;BMP280;9205;52.032;4.314;2023-07-31T09:49:08;100511.31;;;19.97
18161;BMP280;9205;52.032;4.314;2023-07-31T09:51:37;100499.38;;;19.96
18161;BMP280;9205;52.032;4.314;2023-07-31T09:54:11;100509.59;;;19.98
18161;BMP280;9205;52.032;4.314;2023-07-31T09:56:44;100512.28;;;19.96
18161;BMP280;9205;52.032;4.314;2023-07-31T09:59:14;100504.31;;;19.99
18161;BMP280;9205;52.032;4.314;2023-07-31T10:01:43;100509.28;;;20.02
18161;BMP280;9205;52.032;4.314;2023-07-31T10:04:12;100497.31;;;20.01
18161;BMP280;9205;52.032;4.314;2023-07-31T10:06:43;100514.63;;;19.99
18161;BMP280;9205;52.032;4.314;2023-07-31T10:09:15;100501.34;;;20.05
18161;BMP280;9205;52.032;4.314;2023-07-31T10:11:50;100511.34;;;20.10
18161;BMP280;9205;52.032;4.314;2023-07-31T10:14:20;100509.53;;;20.12
18161;BMP280;9205;52.032;4.314;2023-07-31T10:16:49;100506.81;;;20.13
18161;BMP280;9205;52.032;4.314;2023-07-31T10:19:18;100509.69;;;20.09
18161;BMP280;9205;52.032;4.314;2023-07-31T10:21:46;100513.94;;;20.10
18161;BMP280;9205;52.032;4.314;2023-07-31T10:24:16;100513.03;;;20.11
18161;BMP280;9205;52.032;4.314;2023-07-31T10:26:46;100510.97;;;20.16
18161;BMP280;9205;52.032;4.314;2023-07-31T10:29:15;100530.03;;;20.13
18161;BMP280;9205;52.032;4.314;2023-07-31T10:31:46;100507.88;;;20.11
18161;BMP280;9205;52.032;4.314;2023-07-31T10:34:14;100515.94;;;20.19
18161;BMP280;9205;52.032;4.314;2023-07-31T10:36:42;100502.91;;;20.20
18161;BMP280;9205;52.032;4.314;2023-07-31T10:39:35;100504.38;;;20.24
18161;BMP280;9205;52.032;4.314;2023-07-31T10:42:12;100500.44;;;20.19
18161;BMP280;9205;52.032;4.314;2023-07-31T10:44:44;100500.66;;;20.16
18161;BMP280;9205;52.032;4.314;2023-07-31T10:47:15;100508.41;;;20.16
18161;BMP280;9205;52.032;4.314;2023-07-31T10:49:45;100502.41;;;20.15
18161;BMP280;9205;52.032;4.314;2023-07-31T10:52:19;100499.81;;;20.15
18161;BMP280;9205;52.032;4.314;2023-07-31T10:54:49;100502.91;;;20.20
18161;BMP280;9205;52.032;4.314;2023-07-31T10:57:22;100503.34;;;20.27
18161;BMP280;9205;52.032;4.314;2023-07-31T10:59:51;100484.69;;;20.23
18161;BMP280;9205;52.032;4.314;2023-07-31T11:02:25;100482.59;;;20.28
18161;BMP280;9205;52.032;4.314;2023-07-31T11:05:08;100486.47;;;20.35
18161;BMP280;9205;52.032;4.314;2023-07-31T11:07:48;100493.56;;;20.44
18161;BMP280;9205;52.032;4.314;2023-07-31T11:10:19;100479.66;;;20.47
18161;BMP280;9205;52.032;4.314;2023-07-31T11:12:48;100475.81;;;20.52
18161;BMP280;9205;52.032;4.314;2023-07-31T11:15:16;100478.09;;;20.56
18161;BMP280;9205;52.032;4.314;2023-07-31T11:17:43;100474.28;;;20.62
18161;BMP280;9205;52.032;4.314;2023-07-31T11:20:11;100476.53;;;20.54
18161;BMP280;9205;52.032;4.314;2023-07-31T11:22:38;100464.16;;;20.59
18161;BMP280;9205;52.032;4.314;2023-07-31T11:25:09;100466.34;;;20.65
18161;BMP280;9205;52.032;4.314;2023-07-31T11:27:39;100462.31;;;20.61
18161;BMP280;9205;52.032;4.314;2023-07-31T11:30:11;100457.13;;;20.61
18161;BMP280;9205;52.032;4.314;2023-07-31T11:32:38;100460.03;;;20.56
18161;BMP280;9205;52.032;4.314;2023-07-31T11:35:06;100465.81;;;20.60
18161;BMP280;9205;52.032;4.314;2023-07-31T11:37:41;100462.50;;;20.70
18161;BMP280;9205;52.032;4.314;2023-07-31T11:40:10;100472.50;;;20.75
18161;BMP280;9205;52.032;4.314;2023-07-31T11:42:38;100482.81;;;20.75
18161;BMP280;9205;52.032;4.314;2023-07-31T11:45:06;100480.66;;;20.69
18161;BMP280;9205;52.032;4.314;2023-07-31T11:47:37;100485.72;;;20.70
18161;BMP280;9205;52.032;4.314;2023-07-31T11:50:09;100507.81;;;20.62
18161;BMP280;9205;52.032;4.314;2023-07-31T11:52:40;100481.28;;;20.60
18161;BMP280;9205;52.032;4.314;2023-07-31T11:55:12;100479.44;;;20.49
18161;BMP280;9205;52.032;4.314;2023-07-31T11:57:43;100477.38;;;20.42
18161;BMP280;9205;52.032;4.314;2023-07-31T12:00:13;100473.03;;;20.43
18161;BMP280;9205;52.032;4.314;2023-07-31T12:02:43;100453.44;;;20.40
18161;BMP280;9205;52.032;4.314;2023-07-31T12:05:11;100455.09;;;20.41
18161;BMP280;9205;52.032;4.314;2023-07-31T12:07:47;100457.06;;;20.50
18161;BMP280;9205;52.032;4.314;2023-07-31T12:10:29;100460.34;;;20.52
18161;BMP280;9205;52.032;4.314;2023-07-31T12:13:02;100455.28;;;20.50
18161;BMP280;9205;52.032;4.314;2023-07-31T12:15:35;100464.69;;;20.51
18161;BMP280;9205;52.032;4.314;2023-07-31T12:18:08;100452.41;;;20.55
18161;BMP280;9205;52.032;4.314;2023-07-31T12:20:40;100439.69;;;20.64
18161;BMP280;9205;52.032;4.314;2023-07-31T12:23:12;100445.81;;;20.76
18161;BMP280;9205;52.032;4.314;2023-07-31T12:25:40;100454.28;;;20.78
18161;BMP280;9205;52.032;4.314;2023-07-31T12:28:07;100447.03;;;20.83
18161;BMP280;9205;52.032;4.314;2023-07-31T12:30:39;100448.47;;;20.87
18161;BMP280;9205;52.032;4.314;2023-07-31T12:33:14;100419.97;;;20.88
18161;BMP280;9205;52.032;4.314;2023-07-31T12:35:45;100424.94;;;20.91
18161;BMP280;9205;52.032;4.314;2023-07-31T12:38:12;100419.97;;;20.88
18161;BMP280;9205;52.032;4.314;2023-07-31T12:40:41;100418.53;;;20.84
18161;BMP280;9205;52.032;4.314;2023-07-31T12:43:09;100427.81;;;20.87
18161;BMP280;9205;52.032;4.314;2023-07-31T12:45:36;100437.53;;;20.83
18161;BMP280;9205;52.032;4.314;2023-07-31T12:48:04;100436.00;;;20.81
18161;BMP280;9205;52.032;4.314;2023-07-31T12:50:32;100435.28;;;20.79
18161;BMP280;9205;52.032;4.314;2023-07-31T12:53:02;100440.63;;;20.76
18161;BMP280;9205;52.032;4.314;2023-07-31T12:55:30;100440.72;;;20.74
18161;BMP280;9205;52.032;4.314;2023-07-31T12:57:57;100429.28;;;20.66
18161;BMP280;9205;52.032;4.314;2023-07-31T13:00:24;100425.56;;;20.57
18161;BMP280;9205;52.032;4.314;2023-07-31T13:02:52;100418.13;;;20.53
18161;BMP280;9205;52.032;4.314;2023-07-31T13:05:20;100428.88;;;20.47
18161;BMP280;9205;52.032;4.314;2023-07-31T13:07:48;100426.50;;;20.44
18161;BMP280;9205;52.032;4.314;2023-07-31T13:10:16;100412.91;;;20.42
18161;BMP280;9205;52.032;4.314;2023-07-31T13:12:43;100413.81;;;20.41
18161;BMP280;9205;52.032;4.314;2023-07-31T13:15:12;100400.31;;;20.38
18161;BMP280;9205;52.032;4.314;2023-07-31T13:17:39;100410.19;;;20.31
18161;BMP280;9205;52.032;4.314;2023-07-31T13:20:08;100398.66;;;20.24
18161;BMP280;9205;52.032;4.314;2023-07-31T13:22:35;100405.47;;;20.25
18161;BMP280;9205;52.032;4.314;2023-07-31T13:25:05;100403.63;;;20.27
18161;BMP280;9205;52.032;4.314;2023-07-31T13:27:33;100390.72;;;20.27
18161;BMP280;9205;52.032;4.314;2023-07-31T13:30:01;100401.03;;;20.27
18161;BMP280;9205;52.032;4.314;2023-07-31T13:32:29;100391.66;;;20.26
18161;BMP280;9205;52.032;4.314;2023-07-31T13:34:56;100396.19;;;20.35
18161;BMP280;9205;52.032;4.314;2023-07-31T13:37:24;100383.69;;;20.29
18161;BMP280;9205;52.032;4.314;2023-07-31T13:39:51;100381.72;;;20.33
18161;BMP280;9205;52.032;4.314;2023-07-31T13:42:20;100385.34;;;20.30
18161;BMP280;9205;52.032;4.314;2023-07-31T13:44:48;100392.97;;;20.32
18161;BMP280;9205;52.032;4.314;2023-07-31T13:47:15;100389.16;;;20.37
18161;BMP280;9205;52.032;4.314;2023-07-31T13:49:42;100401.63;;;20.43
18161;BMP280;9205;52.032;4.314;2023-07-31T13:52:10;100388.84;;;20.42
18161;BMP280;9205;52.032;4.314;2023-07-31T13:54:37;100387.09;;;20.42
18161;BMP280;9205;52.032;4.314;2023-07-31T13:57:05;100381.22;;;20.40
18161;BMP280;9205;52.032;4.314;2023-07-31T13:59:34;100371.09;;;20.37
18161;BMP280;9205;52.032;4.314;2023-07-31T14:02:02;100372.56;;;20.29
18161;BMP280;9205;52.032;4.314;2023-07-31T14:04:30;100365.75;;;20.28
18161;BMP280;9205;52.032;4.314;2023-07-31T14:06:58;100364.22;;;20.25
18161;BMP280;9205;52.032;4.314;2023-07-31T14:09:25;100355.94;;;20.20
18161;BMP280;9205;52.032;4.314;2023-07-31T14:11:53;100350.28;;;20.15
18161;BMP280;9205;52.032;4.314;2023-07-31T14:14:21;100368.44;;;20.14
18161;BMP280;9205;52.032;4.314;2023-07-31T14:16:49;100354.31;;;20.07